sensor_id;sensor_type;location;lat;lon;timestamp;temperature;humidity
22006;DHT22;11167;46.988;15.470;2022-10-29T00:01:49;15.40;81.30
22006;DHT22;11167;46.988;15.470;2022-10-29T00:03:50;15.40;81.30
22006;DHT22;11167;46.988;15.470;2022-10-29T00:06:02;15.40;81.40
22006;DHT22;11167;46.988;15.470;2022-10-29T00:08:04;15.40;81.40
22006;DHT22;11167;46.988;15.470;2022-10-29T00:10:06;15.30;81.40
22006;DHT22;11167;46.988;15.470;2022-10-29T00:12:07;15.30;81.40
22006;DHT22;11167;46.988;15.470;2022-10-29T00:14:09;15.30;81.40
22006;DHT22;11167;46.988;15.470;2022-10-29T00:16:13;15.30;81.40
22006;DHT22;11167;46.988;15.470;2022-10-29T00:18:14;15.30;81.50
22006;DHT22;11167;46.988;15.470;2022-10-29T00:20:16;15.30;81.50
22006;DHT22;11167;46.988;15.470;2022-10-29T00:22:19;15.30;82.30
22006;DHT22;11167;46.988;15.470;2022-10-29T00:24:20;15.30;81.50
22006;DHT22;11167;46.988;15.470;2022-10-29T00:26:21;15.30;81.50
22006;DHT22;11167;46.988;15.470;2022-10-29T00:28:22;15.30;81.50
22006;DHT22;11167;46.988;15.470;2022-10-29T00:30:23;15.30;81.50
22006;DHT22;11167;46.988;15.470;2022-10-29T00:32:24;15.30;81.50
22006;DHT22;11167;46.988;15.470;2022-10-29T00:34:26;15.30;81.50
22006;DHT22;11167;46.988;15.470;2022-10-29T00:36:28;15.20;81.50
22006;DHT22;11167;46.988;15.470;2022-10-29T00:38:31;15.20;81.50
22006;DHT22;11167;46.988;15.470;2022-10-29T00:40:35;15.20;81.50
22006;DHT22;11167;46.988;15.470;2022-10-29T00:42:37;15.20;81.60
22006;DHT22;11167;46.988;15.470;2022-10-29T00:44:39;15.20;81.50
22006;DHT22;11167;46.988;15.470;2022-10-29T00:49:00;15.20;81.60
22006;DHT22;11167;46.988;15.470;2022-10-29T00:51:04;15.20;81.60
22006;DHT22;11167;46.988;15.470;2022-10-29T00:53:06;15.20;81.60
22006;DHT22;11167;46.988;15.470;2022-10-29T00:55:10;15.20;81.70
22006;DHT22;11167;46.988;15.470;2022-10-29T00:57:19;15.10;81.60
22006;DHT22;11167;46.988;15.470;2022-10-29T00:59:17;15.10;81.60
22006;DHT22;11167;46.988;15.470;2022-10-29T01:01:18;15.10;81.60
22006;DHT22;11167;46.988;15.470;2022-10-29T01:03:20;15.10;81.60
22006;DHT22;11167;46.988;15.470;2022-10-29T01:05:23;15.10;81.70
22006;DHT22;11167;46.988;15.470;2022-10-29T01:07:25;15.10;81.70
22006;DHT22;11167;46.988;15.470;2022-10-29T01:09:26;15.10;82.30
22006;DHT22;11167;46.988;15.470;2022-10-29T01:11:34;15.10;81.80
22006;DHT22;11167;46.988;15.470;2022-10-29T01:18:25;15.00;81.80
22006;DHT22;11167;46.988;15.470;2022-10-29T01:27:42;15.00;81.90
22006;DHT22;11167;46.988;15.470;2022-10-29T01:32:24;15.00;81.90
22006;DHT22;11167;46.988;15.470;2022-10-29T01:34:25;15.00;82.00
22006;DHT22;11167;46.988;15.470;2022-10-29T01:36:39;15.00;82.00
22006;DHT22;11167;46.988;15.470;2022-10-29T01:43:24;14.90;82.00
22006;DHT22;11167;46.988;15.470;2022-10-29T01:45:38;14.90;82.10
22006;DHT22;11167;46.988;15.470;2022-10-29T01:47:35;14.90;82.00
22006;DHT22;11167;46.988;15.470;2022-10-29T01:49:38;14.90;82.00
22006;DHT22;11167;46.988;15.470;2022-10-29T01:51:42;14.90;82.00
22006;DHT22;11167;46.988;15.470;2022-10-29T01:53:44;14.90;82.10
22006;DHT22;11167;46.988;15.470;2022-10-29T01:55:46;14.90;82.00
22006;DHT22;11167;46.988;15.470;2022-10-29T01:57:47;14.90;82.00
22006;DHT22;11167;46.988;15.470;2022-10-29T01:59:48;14.90;82.00
22006;DHT22;11167;46.988;15.470;2022-10-29T02:09:14;14.90;82.00
22006;DHT22;11167;46.988;15.470;2022-10-29T02:13:47;14.80;82.10
22006;DHT22;11167;46.988;15.470;2022-10-29T02:15:51;14.80;82.10
22006;DHT22;11167;46.988;15.470;2022-10-29T02:18:01;14.80;82.10
22006;DHT22;11167;46.988;15.470;2022-10-29T02:20:05;14.80;82.10
22006;DHT22;11167;46.988;15.470;2022-10-29T02:22:06;14.80;82.20
22006;DHT22;11167;46.988;15.470;2022-10-29T02:24:08;14.80;82.30
22006;DHT22;11167;46.988;15.470;2022-10-29T02:26:09;14.80;82.20
22006;DHT22;11167;46.988;15.470;2022-10-29T02:28:10;14.80;82.20
22006;DHT22;11167;46.988;15.470;2022-10-29T02:30:11;14.80;82.20
22006;DHT22;11167;46.988;15.470;2022-10-29T02:32:13;14.80;82.20
22006;DHT22;11167;46.988;15.470;2022-10-29T02:34:14;14.80;82.20
22006;DHT22;11167;46.988;15.470;2022-10-29T02:36:15;14.80;82.20
22006;DHT22;11167;46.988;15.470;2022-10-29T02:38:16;14.80;82.20
22006;DHT22;11167;46.988;15.470;2022-10-29T02:40:17;14.80;82.20
22006;DHT22;11167;46.988;15.470;2022-10-29T02:42:18;14.80;82.20
22006;DHT22;11167;46.988;15.470;2022-10-29T02:44:19;14.80;82.20
22006;DHT22;11167;46.988;15.470;2022-10-29T02:46:23;14.70;82.00
22006;DHT22;11167;46.988;15.470;2022-10-29T02:48:24;14.80;81.80
22006;DHT22;11167;46.988;15.470;2022-10-29T02:50:25;14.80;82.30
22006;DHT22;11167;46.988;15.470;2022-10-29T02:52:26;14.80;82.30
22006;DHT22;11167;46.988;15.470;2022-10-29T02:54:27;14.80;82.30
22006;DHT22;11167;46.988;15.470;2022-10-29T02:56:28;14.80;82.30
22006;DHT22;11167;46.988;15.470;2022-10-29T02:58:30;14.80;82.30
22006;DHT22;11167;46.988;15.470;2022-10-29T03:00:31;14.70;82.20
22006;DHT22;11167;46.988;15.470;2022-10-29T03:02:32;14.70;82.30
22006;DHT22;11167;46.988;15.470;2022-10-29T03:04:33;14.70;82.30
22006;DHT22;11167;46.988;15.470;2022-10-29T03:06:35;14.70;82.30
22006;DHT22;11167;46.988;15.470;2022-10-29T03:08:37;14.70;82.30
22006;DHT22;11167;46.988;15.470;2022-10-29T03:10:38;14.70;82.30
22006;DHT22;11167;46.988;15.470;2022-10-29T03:12:39;14.70;82.30
22006;DHT22;11167;46.988;15.470;2022-10-29T03:15:00;14.70;82.30
22006;DHT22;11167;46.988;15.470;2022-10-29T03:17:01;14.70;82.30
22006;DHT22;11167;46.988;15.470;2022-10-29T03:19:02;14.70;82.50
22006;DHT22;11167;46.988;15.470;2022-10-29T03:21:04;14.70;82.50
22006;DHT22;11167;46.988;15.470;2022-10-29T03:23:05;14.70;82.40
22006;DHT22;11167;46.988;15.470;2022-10-29T03:25:07;14.70;82.40
22006;DHT22;11167;46.988;15.470;2022-10-29T03:27:08;14.70;82.40
22006;DHT22;11167;46.988;15.470;2022-10-29T03:29:09;14.70;82.40
22006;DHT22;11167;46.988;15.470;2022-10-29T03:31:10;14.60;82.40
22006;DHT22;11167;46.988;15.470;2022-10-29T03:33:11;14.70;82.40
22006;DHT22;11167;46.988;15.470;2022-10-29T03:35:14;14.60;82.40
22006;DHT22;11167;46.988;15.470;2022-10-29T03:37:16;14.70;82.40
22006;DHT22;11167;46.988;15.470;2022-10-29T03:39:17;14.70;82.60
22006;DHT22;11167;46.988;15.470;2022-10-29T03:41:18;14.60;82.50
22006;DHT22;11167;46.988;15.470;2022-10-29T03:43:19;14.60;82.50
22006;DHT22;11167;46.988;15.470;2022-10-29T03:45:20;14.60;82.50
22006;DHT22;11167;46.988;15.470;2022-10-29T03:47:22;14.60;82.50
22006;DHT22;11167;46.988;15.470;2022-10-29T03:49:23;14.60;82.90
22006;DHT22;11167;46.988;15.470;2022-10-29T03:51:24;14.60;82.50
22006;DHT22;11167;46.988;15.470;2022-10-29T03:53:25;14.60;82.50
22006;DHT22;11167;46.988;15.470;2022-10-29T03:55:27;14.60;82.50
22006;DHT22;11167;46.988;15.470;2022-10-29T03:57:31;14.60;82.50
22006;DHT22;11167;46.988;15.470;2022-10-29T03:59:32;14.60;82.60
22006;DHT22;11167;46.988;15.470;2022-10-29T04:01:33;14.60;82.60
22006;DHT22;11167;46.988;15.470;2022-10-29T04:03:36;14.60;82.60
22006;DHT22;11167;46.988;15.470;2022-10-29T04:05:37;14.60;82.60
22006;DHT22;11167;46.988;15.470;2022-10-29T04:07:38;14.60;82.70
22006;DHT22;11167;46.988;15.470;2022-10-29T04:09:39;14.60;82.70
22006;DHT22;11167;46.988;15.470;2022-10-29T04:11:40;14.60;83.30
22006;DHT22;11167;46.988;15.470;2022-10-29T04:13:50;14.60;82.70
22006;DHT22;11167;46.988;15.470;2022-10-29T04:15:54;14.60;82.70
22006;DHT22;11167;46.988;15.470;2022-10-29T04:17:56;14.60;82.70
22006;DHT22;11167;46.988;15.470;2022-10-29T04:19:57;14.60;82.70
22006;DHT22;11167;46.988;15.470;2022-10-29T04:21:58;14.50;82.90
22006;DHT22;11167;46.988;15.470;2022-10-29T04:23:59;14.50;82.70
22006;DHT22;11167;46.988;15.470;2022-10-29T04:26:00;14.50;82.80
22006;DHT22;11167;46.988;15.470;2022-10-29T04:28:02;14.50;82.70
22006;DHT22;11167;46.988;15.470;2022-10-29T04:30:03;14.50;82.80
22006;DHT22;11167;46.988;15.470;2022-10-29T04:32:05;14.50;82.80
22006;DHT22;11167;46.988;15.470;2022-10-29T04:34:06;14.50;82.80
22006;DHT22;11167;46.988;15.470;2022-10-29T04:36:07;14.50;82.80
22006;DHT22;11167;46.988;15.470;2022-10-29T04:38:09;14.50;83.50
22006;DHT22;11167;46.988;15.470;2022-10-29T04:40:12;14.50;82.90
22006;DHT22;11167;46.988;15.470;2022-10-29T04:42:13;14.50;82.80
22006;DHT22;11167;46.988;15.470;2022-10-29T04:44:14;14.50;82.90
22006;DHT22;11167;46.988;15.470;2022-10-29T04:46:16;14.50;82.90
22006;DHT22;11167;46.988;15.470;2022-10-29T04:48:17;14.50;82.90
22006;DHT22;11167;46.988;15.470;2022-10-29T04:50:18;14.50;82.90
22006;DHT22;11167;46.988;15.470;2022-10-29T04:52:19;14.50;82.90
22006;DHT22;11167;46.988;15.470;2022-10-29T04:54:20;14.40;82.90
22006;DHT22;11167;46.988;15.470;2022-10-29T04:56:22;14.40;82.90
22006;DHT22;11167;46.988;15.470;2022-10-29T04:58:23;14.40;82.90
22006;DHT22;11167;46.988;15.470;2022-10-29T05:00:24;14.40;82.90
22006;DHT22;11167;46.988;15.470;2022-10-29T05:02:25;14.40;83.10
22006;DHT22;11167;46.988;15.470;2022-10-29T05:04:26;14.40;83.00
22006;DHT22;11167;46.988;15.470;2022-10-29T05:06:29;14.40;83.80
22006;DHT22;11167;46.988;15.470;2022-10-29T05:08:30;14.40;83.10
22006;DHT22;11167;46.988;15.470;2022-10-29T05:10:33;14.40;83.10
22006;DHT22;11167;46.988;15.470;2022-10-29T05:12:35;14.40;83.00
22006;DHT22;11167;46.988;15.470;2022-10-29T05:14:36;14.40;83.10
22006;DHT22;11167;46.988;15.470;2022-10-29T05:16:37;14.40;83.10
22006;DHT22;11167;46.988;15.470;2022-10-29T05:18:38;14.40;83.10
22006;DHT22;11167;46.988;15.470;2022-10-29T05:20:39;14.40;83.10
22006;DHT22;11167;46.988;15.470;2022-10-29T05:22:40;14.40;83.10
22006;DHT22;11167;46.988;15.470;2022-10-29T05:24:42;14.40;83.10
22006;DHT22;11167;46.988;15.470;2022-10-29T05:26:44;14.30;83.10
22006;DHT22;11167;46.988;15.470;2022-10-29T05:28:50;14.30;83.10
22006;DHT22;11167;46.988;15.470;2022-10-29T05:30:52;14.30;83.10
22006;DHT22;11167;46.988;15.470;2022-10-29T05:32:53;14.30;83.10
22006;DHT22;11167;46.988;15.470;2022-10-29T05:34:54;14.30;83.10
22006;DHT22;11167;46.988;15.470;2022-10-29T05:36:55;14.30;84.00
22006;DHT22;11167;46.988;15.470;2022-10-29T05:38:56;14.30;83.10
22006;DHT22;11167;46.988;15.470;2022-10-29T05:40:58;14.30;83.30
22006;DHT22;11167;46.988;15.470;2022-10-29T05:42:59;14.30;83.30
22006;DHT22;11167;46.988;15.470;2022-10-29T05:45:00;14.30;83.20
22006;DHT22;11167;46.988;15.470;2022-10-29T05:47:01;14.20;83.10
22006;DHT22;11167;46.988;15.470;2022-10-29T05:49:03;14.20;83.30
22006;DHT22;11167;46.988;15.470;2022-10-29T05:51:04;14.20;83.10
22006;DHT22;11167;46.988;15.470;2022-10-29T05:53:08;14.20;83.10
22006;DHT22;11167;46.988;15.470;2022-10-29T05:55:09;14.20;83.20
22006;DHT22;11167;46.988;15.470;2022-10-29T05:57:10;14.20;83.20
22006;DHT22;11167;46.988;15.470;2022-10-29T05:59:14;14.20;83.30
22006;DHT22;11167;46.988;15.470;2022-10-29T06:01:15;14.20;83.20
22006;DHT22;11167;46.988;15.470;2022-10-29T06:03:20;14.20;83.30
22006;DHT22;11167;46.988;15.470;2022-10-29T06:05:22;14.20;83.30
22006;DHT22;11167;46.988;15.470;2022-10-29T06:07:23;14.20;83.30
22006;DHT22;11167;46.988;15.470;2022-10-29T06:09:24;14.10;83.30
22006;DHT22;11167;46.988;15.470;2022-10-29T06:11:25;14.10;83.30
22006;DHT22;11167;46.988;15.470;2022-10-29T06:13:26;14.10;83.30
22006;DHT22;11167;46.988;15.470;2022-10-29T06:15:28;14.10;83.30
22006;DHT22;11167;46.988;15.470;2022-10-29T06:17:29;14.10;83.30
22006;DHT22;11167;46.988;15.470;2022-10-29T06:19:30;14.10;83.30
22006;DHT22;11167;46.988;15.470;2022-10-29T06:21:31;14.10;83.40
22006;DHT22;11167;46.988;15.470;2022-10-29T06:23:32;14.10;83.30
22006;DHT22;11167;46.988;15.470;2022-10-29T06:25:33;14.10;83.30
22006;DHT22;11167;46.988;15.470;2022-10-29T06:27:35;14.10;83.40
22006;DHT22;11167;46.988;15.470;2022-10-29T06:29:36;14.10;83.40
22006;DHT22;11167;46.988;15.470;2022-10-29T06:31:37;14.00;83.30
22006;DHT22;11167;46.988;15.470;2022-10-29T06:33:39;14.00;83.30
22006;DHT22;11167;46.988;15.470;2022-10-29T06:35:40;14.00;83.40
22006;DHT22;11167;46.988;15.470;2022-10-29T06:37:41;14.00;83.30
22006;DHT22;11167;46.988;15.470;2022-10-29T06:39:42;14.00;83.30
22006;DHT22;11167;46.988;15.470;2022-10-29T06:41:43;14.00;84.00
22006;DHT22;11167;46.988;15.470;2022-10-29T06:43:44;14.00;83.40
22006;DHT22;11167;46.988;15.470;2022-10-29T06:45:47;14.00;83.40
22006;DHT22;11167;46.988;15.470;2022-10-29T06:47:49;14.00;83.40
22006;DHT22;11167;46.988;15.470;2022-10-29T06:49:50;14.00;83.40
22006;DHT22;11167;46.988;15.470;2022-10-29T06:51:52;14.00;83.40
22006;DHT22;11167;46.988;15.470;2022-10-29T06:53:53;14.00;83.40
22006;DHT22;11167;46.988;15.470;2022-10-29T06:55:54;13.90;83.40
22006;DHT22;11167;46.988;15.470;2022-10-29T06:58:01;13.90;83.40
22006;DHT22;11167;46.988;15.470;2022-10-29T07:00:04;14.00;83.50
22006;DHT22;11167;46.988;15.470;2022-10-29T07:02:06;13.90;83.40
22006;DHT22;11167;46.988;15.470;2022-10-29T07:04:09;13.90;83.50
22006;DHT22;11167;46.988;15.470;2022-10-29T07:06:10;13.90;83.40
22006;DHT22;11167;46.988;15.470;2022-10-29T07:08:11;13.90;83.50
22006;DHT22;11167;46.988;15.470;2022-10-29T07:10:12;13.90;83.50
22006;DHT22;11167;46.988;15.470;2022-10-29T07:12:14;13.90;83.50
22006;DHT22;11167;46.988;15.470;2022-10-29T07:14:15;13.90;83.60
22006;DHT22;11167;46.988;15.470;2022-10-29T07:16:16;13.90;83.60
22006;DHT22;11167;46.988;15.470;2022-10-29T07:18:17;13.90;83.60
22006;DHT22;11167;46.988;15.470;2022-10-29T07:20:18;13.90;83.50
22006;DHT22;11167;46.988;15.470;2022-10-29T07:22:19;13.90;83.60
22006;DHT22;11167;46.988;15.470;2022-10-29T07:24:20;13.90;83.60
22006;DHT22;11167;46.988;15.470;2022-10-29T07:26:22;13.90;83.60
22006;DHT22;11167;46.988;15.470;2022-10-29T07:28:23;13.90;83.60
22006;DHT22;11167;46.988;15.470;2022-10-29T07:30:25;13.90;83.60
22006;DHT22;11167;46.988;15.470;2022-10-29T07:32:26;13.90;83.60
22006;DHT22;11167;46.988;15.470;2022-10-29T07:34:27;13.90;83.60
22006;DHT22;11167;46.988;15.470;2022-10-29T07:36:31;13.90;83.60
22006;DHT22;11167;46.988;15.470;2022-10-29T07:38:32;13.90;83.60
22006;DHT22;11167;46.988;15.470;2022-10-29T07:40:33;13.80;84.60
22006;DHT22;11167;46.988;15.470;2022-10-29T07:42:37;13.80;83.70
22006;DHT22;11167;46.988;15.470;2022-10-29T07:44:38;13.80;83.80
22006;DHT22;11167;46.988;15.470;2022-10-29T07:46:39;13.80;83.90
22006;DHT22;11167;46.988;15.470;2022-10-29T07:48:40;13.80;83.80
22006;DHT22;11167;46.988;15.470;2022-10-29T07:50:41;13.80;83.90
22006;DHT22;11167;46.988;15.470;2022-10-29T07:52:42;13.80;83.80
22006;DHT22;11167;46.988;15.470;2022-10-29T07:54:44;13.80;83.90
22006;DHT22;11167;46.988;15.470;2022-10-29T07:56:45;13.80;83.80
22006;DHT22;11167;46.988;15.470;2022-10-29T07:58:46;13.80;83.80
22006;DHT22;11167;46.988;15.470;2022-10-29T08:00:47;13.80;83.90
22006;DHT22;11167;46.988;15.470;2022-10-29T08:02:55;13.80;83.80
22006;DHT22;11167;46.988;15.470;2022-10-29T08:04:57;13.80;83.80
22006;DHT22;11167;46.988;15.470;2022-10-29T08:06:58;13.80;83.90
22006;DHT22;11167;46.988;15.470;2022-10-29T08:08:59;13.80;83.90
22006;DHT22;11167;46.988;15.470;2022-10-29T08:11:03;13.80;83.90
22006;DHT22;11167;46.988;15.470;2022-10-29T08:13:05;13.80;83.90
22006;DHT22;11167;46.988;15.470;2022-10-29T08:15:07;13.80;83.90
22006;DHT22;11167;46.988;15.470;2022-10-29T08:17:08;13.80;83.90
22006;DHT22;11167;46.988;15.470;2022-10-29T08:19:10;13.80;83.90
22006;DHT22;11167;46.988;15.470;2022-10-29T08:21:11;13.80;83.90
22006;DHT22;11167;46.988;15.470;2022-10-29T08:23:13;13.80;84.00
22006;DHT22;11167;46.988;15.470;2022-10-29T08:25:15;13.80;83.90
22006;DHT22;11167;46.988;15.470;2022-10-29T08:27:16;13.80;83.90
22006;DHT22;11167;46.988;15.470;2022-10-29T08:29:17;13.80;84.00
22006;DHT22;11167;46.988;15.470;2022-10-29T08:31:18;13.80;84.00
22006;DHT22;11167;46.988;15.470;2022-10-29T08:33:19;13.80;84.10
22006;DHT22;11167;46.988;15.470;2022-10-29T08:35:21;13.80;84.00
22006;DHT22;11167;46.988;15.470;2022-10-29T08:37:22;13.80;84.00
22006;DHT22;11167;46.988;15.470;2022-10-29T08:39:23;13.80;84.00
22006;DHT22;11167;46.988;15.470;2022-10-29T08:41:33;13.80;84.00
22006;DHT22;11167;46.988;15.470;2022-10-29T08:45:53;13.80;84.00
22006;DHT22;11167;46.988;15.470;2022-10-29T08:52:27;13.80;84.00
22006;DHT22;11167;46.988;15.470;2022-10-29T08:54:31;13.80;84.10
22006;DHT22;11167;46.988;15.470;2022-10-29T08:56:35;13.80;84.10
22006;DHT22;11167;46.988;15.470;2022-10-29T09:00:59;13.80;84.10
22006;DHT22;11167;46.988;15.470;2022-10-29T09:03:00;13.80;85.10
22006;DHT22;11167;46.988;15.470;2022-10-29T09:05:01;13.90;84.20
22006;DHT22;11167;46.988;15.470;2022-10-29T09:09:55;13.90;85.10
22006;DHT22;11167;46.988;15.470;2022-10-29T09:14:23;13.90;84.40
22006;DHT22;11167;46.988;15.470;2022-10-29T09:21:31;14.00;84.60
22006;DHT22;11167;46.988;15.470;2022-10-29T09:23:45;14.00;84.60
22006;DHT22;11167;46.988;15.470;2022-10-29T09:25:57;14.00;84.70
22006;DHT22;11167;46.988;15.470;2022-10-29T09:28:05;14.00;84.80
22006;DHT22;11167;46.988;15.470;2022-10-29T09:30:13;14.00;84.80
22006;DHT22;11167;46.988;15.470;2022-10-29T09:34:46;14.10;84.90
22006;DHT22;11167;46.988;15.470;2022-10-29T09:36:47;14.10;84.90
22006;DHT22;11167;46.988;15.470;2022-10-29T09:39:00;14.10;84.90
22006;DHT22;11167;46.988;15.470;2022-10-29T09:41:03;14.20;85.70
22006;DHT22;11167;46.988;15.470;2022-10-29T09:43:46;14.20;85.00
22006;DHT22;11167;46.988;15.470;2022-10-29T09:52:35;14.30;85.20
22006;DHT22;11167;46.988;15.470;2022-10-29T09:54:37;14.40;85.30
22006;DHT22;11167;46.988;15.470;2022-10-29T09:56:42;14.40;85.30
22006;DHT22;11167;46.988;15.470;2022-10-29T09:58:48;14.40;85.30
22006;DHT22;11167;46.988;15.470;2022-10-29T10:00:50;14.50;85.40
22006;DHT22;11167;46.988;15.470;2022-10-29T10:03:01;14.50;85.50
22006;DHT22;11167;46.988;15.470;2022-10-29T10:07:15;14.60;85.60
22006;DHT22;11167;46.988;15.470;2022-10-29T10:09:14;14.60;85.60
22006;DHT22;11167;46.988;15.470;2022-10-29T10:11:17;14.60;85.70
22006;DHT22;11167;46.988;15.470;2022-10-29T10:13:19;14.70;85.80
22006;DHT22;11167;46.988;15.470;2022-10-29T10:15:31;14.80;86.60
22006;DHT22;11167;46.988;15.470;2022-10-29T10:17:55;14.80;86.00
22006;DHT22;11167;46.988;15.470;2022-10-29T10:19:57;14.80;86.00
22006;DHT22;11167;46.988;15.470;2022-10-29T10:22:00;14.80;86.00
22006;DHT22;11167;46.988;15.470;2022-10-29T10:24:02;14.90;86.20
22006;DHT22;11167;46.988;15.470;2022-10-29T10:26:10;14.90;86.20
22006;DHT22;11167;46.988;15.470;2022-10-29T10:28:29;15.00;86.20
22006;DHT22;11167;46.988;15.470;2022-10-29T10:30:29;15.00;86.30
22006;DHT22;11167;46.988;15.470;2022-10-29T10:32:30;15.10;86.40
22006;DHT22;11167;46.988;15.470;2022-10-29T10:36:39;15.20;86.60
22006;DHT22;11167;46.988;15.470;2022-10-29T10:38:43;15.30;86.70
22006;DHT22;11167;46.988;15.470;2022-10-29T10:40:59;15.30;86.70
22006;DHT22;11167;46.988;15.470;2022-10-29T10:42:56;15.40;86.70
22006;DHT22;11167;46.988;15.470;2022-10-29T10:45:04;15.50;86.90
22006;DHT22;11167;46.988;15.470;2022-10-29T10:47:06;15.50;86.90
22006;DHT22;11167;46.988;15.470;2022-10-29T10:49:16;15.60;87.00
22006;DHT22;11167;46.988;15.470;2022-10-29T10:51:24;15.60;87.80
22006;DHT22;11167;46.988;15.470;2022-10-29T10:53:26;15.70;87.00
22006;DHT22;11167;46.988;15.470;2022-10-29T10:55:31;15.80;87.20
22006;DHT22;11167;46.988;15.470;2022-10-29T10:57:36;15.80;87.20
22006;DHT22;11167;46.988;15.470;2022-10-29T10:59:56;15.90;87.30
22006;DHT22;11167;46.988;15.470;2022-10-29T11:01:58;15.90;87.30
22006;DHT22;11167;46.988;15.470;2022-10-29T11:04:24;16.00;87.40
22006;DHT22;11167;46.988;15.470;2022-10-29T11:06:26;16.10;87.50
22006;DHT22;11167;46.988;15.470;2022-10-29T11:08:32;16.20;87.60
22006;DHT22;11167;46.988;15.470;2022-10-29T11:12:49;16.30;87.80
22006;DHT22;11167;46.988;15.470;2022-10-29T11:15:04;16.40;87.90
22006;DHT22;11167;46.988;15.470;2022-10-29T11:17:00;16.40;87.80
22006;DHT22;11167;46.988;15.470;2022-10-29T11:21:20;16.60;88.10
22006;DHT22;11167;46.988;15.470;2022-10-29T11:23:51;16.60;88.10
22006;DHT22;11167;46.988;15.470;2022-10-29T11:25:53;16.70;88.10
22006;DHT22;11167;46.988;15.470;2022-10-29T11:28:07;16.80;88.30
22006;DHT22;11167;46.988;15.470;2022-10-29T11:30:16;16.90;89.10
22006;DHT22;11167;46.988;15.470;2022-10-29T11:35:31;17.00;88.40
22006;DHT22;11167;46.988;15.470;2022-10-29T11:37:39;17.10;88.50
22006;DHT22;11167;46.988;15.470;2022-10-29T11:39:03;17.10;88.60
22006;DHT22;11167;46.988;15.470;2022-10-29T11:43:10;17.30;88.70
22006;DHT22;11167;46.988;15.470;2022-10-29T11:45:16;17.40;88.80
22006;DHT22;11167;46.988;15.470;2022-10-29T11:47:38;17.50;88.90
22006;DHT22;11167;46.988;15.470;2022-10-29T11:52:25;17.60;89.00
22006;DHT22;11167;46.988;15.470;2022-10-29T11:56:56;17.80;89.10
22006;DHT22;11167;46.988;15.470;2022-10-29T11:59:12;17.80;89.10
22006;DHT22;11167;46.988;15.470;2022-10-29T12:10:36;18.30;89.70
22006;DHT22;11167;46.988;15.470;2022-10-29T12:12:51;18.30;89.60
22006;DHT22;11167;46.988;15.470;2022-10-29T12:14:55;18.40;89.70
22006;DHT22;11167;46.988;15.470;2022-10-29T12:19:24;18.60;89.80
22006;DHT22;11167;46.988;15.470;2022-10-29T12:21:31;18.60;89.80
22006;DHT22;11167;46.988;15.470;2022-10-29T12:23:36;18.70;89.90
22006;DHT22;11167;46.988;15.470;2022-10-29T12:25:41;18.80;89.90
22006;DHT22;11167;46.988;15.470;2022-10-29T12:30:07;19.00;90.00
22006;DHT22;11167;46.988;15.470;2022-10-29T12:39:34;19.30;90.00
22006;DHT22;11167;46.988;15.470;2022-10-29T12:41:47;19.30;90.10
22006;DHT22;11167;46.988;15.470;2022-10-29T12:43:46;19.40;90.10
22006;DHT22;11167;46.988;15.470;2022-10-29T12:46:07;19.50;90.10
22006;DHT22;11167;46.988;15.470;2022-10-29T12:48:11;19.60;90.10
22006;DHT22;11167;46.988;15.470;2022-10-29T12:52:41;19.70;90.10
22006;DHT22;11167;46.988;15.470;2022-10-29T12:54:45;19.80;90.10
22006;DHT22;11167;46.988;15.470;2022-10-29T12:56:47;19.90;90.20
22006;DHT22;11167;46.988;15.470;2022-10-29T12:58:56;20.00;90.20
22006;DHT22;11167;46.988;15.470;2022-10-29T13:00:59;20.00;90.20
22006;DHT22;11167;46.988;15.470;2022-10-29T13:03:00;20.10;90.30
22006;DHT22;11167;46.988;15.470;2022-10-29T13:07:21;20.30;90.30
22006;DHT22;11167;46.988;15.470;2022-10-29T13:09:29;20.30;90.30
22006;DHT22;11167;46.988;15.470;2022-10-29T13:13:51;20.50;90.30
22006;DHT22;11167;46.988;15.470;2022-10-29T13:16:14;20.50;90.30
22006;DHT22;11167;46.988;15.470;2022-10-29T13:18:33;20.60;90.30
22006;DHT22;11167;46.988;15.470;2022-10-29T13:20:38;20.70;90.40
22006;DHT22;11167;46.988;15.470;2022-10-29T13:27:37;20.90;90.40
22006;DHT22;11167;46.988;15.470;2022-10-29T13:31:47;21.00;90.40
22006;DHT22;11167;46.988;15.470;2022-10-29T13:33:49;21.10;90.50
22006;DHT22;11167;46.988;15.470;2022-10-29T13:36:05;21.20;90.50
22006;DHT22;11167;46.988;15.470;2022-10-29T13:38:12;21.20;90.50
22006;DHT22;11167;46.988;15.470;2022-10-29T13:42:32;21.40;90.50
22006;DHT22;11167;46.988;15.470;2022-10-29T13:44:36;21.40;90.60
22006;DHT22;11167;46.988;15.470;2022-10-29T13:46:43;21.50;90.60
22006;DHT22;11167;46.988;15.470;2022-10-29T13:48:45;21.60;90.60
22006;DHT22;11167;46.988;15.470;2022-10-29T13:50:49;21.60;90.60
22006;DHT22;11167;46.988;15.470;2022-10-29T13:52:52;21.70;90.60
22006;DHT22;11167;46.988;15.470;2022-10-29T13:55:14;21.80;90.60
22006;DHT22;11167;46.988;15.470;2022-10-29T13:57:25;21.80;90.50
22006;DHT22;11167;46.988;15.470;2022-10-29T14:01:37;21.90;90.50
22006;DHT22;11167;46.988;15.470;2022-10-29T14:04:01;22.00;90.50
22006;DHT22;11167;46.988;15.470;2022-10-29T14:06:14;22.00;90.50
22006;DHT22;11167;46.988;15.470;2022-10-29T14:12:46;22.10;90.50
22006;DHT22;11167;46.988;15.470;2022-10-29T14:17:13;22.20;90.30
22006;DHT22;11167;46.988;15.470;2022-10-29T14:19:19;22.20;90.50
22006;DHT22;11167;46.988;15.470;2022-10-29T14:21:26;22.20;90.50
22006;DHT22;11167;46.988;15.470;2022-10-29T14:23:29;22.30;90.50
22006;DHT22;11167;46.988;15.470;2022-10-29T14:25:33;22.30;90.90
22006;DHT22;11167;46.988;15.470;2022-10-29T14:27:35;22.30;90.50
22006;DHT22;11167;46.988;15.470;2022-10-29T14:29:36;22.40;90.50
22006;DHT22;11167;46.988;15.470;2022-10-29T14:31:39;22.40;90.50
22006;DHT22;11167;46.988;15.470;2022-10-29T14:33:42;22.40;90.50
22006;DHT22;11167;46.988;15.470;2022-10-29T14:35:44;22.40;90.50
22006;DHT22;11167;46.988;15.470;2022-10-29T14:37:46;22.50;90.40
22006;DHT22;11167;46.988;15.470;2022-10-29T14:39:51;22.50;90.40
22006;DHT22;11167;46.988;15.470;2022-10-29T14:41:53;22.50;90.40
22006;DHT22;11167;46.988;15.470;2022-10-29T14:44:10;22.50;90.40
22006;DHT22;11167;46.988;15.470;2022-10-29T14:46:21;22.60;90.40
22006;DHT22;11167;46.988;15.470;2022-10-29T14:48:23;22.60;90.40
22006;DHT22;11167;46.988;15.470;2022-10-29T14:50:28;22.60;90.40
22006;DHT22;11167;46.988;15.470;2022-10-29T14:52:38;22.60;90.40
22006;DHT22;11167;46.988;15.470;2022-10-29T14:54:44;22.60;90.30